»·PEaware :: N97LF KCMA-KSNA

N97LF :: KCMA-KSNA

FLIGHT INFORMATION

Flight Status: Arrived
Operator: Privately registered:
United States
More flights under this callsign
Pilot: Dana M. (23569)
Aircraft: CESSNA 172 SKYHAWK
(C172)
More flights by this aircraft type
Origin: KCMA Camarillo
United States
Destination: KSNA John Wayne-Orange Co
United States
More flights between these airports :: More routes between these airports
Route: +
File this flight plan on PilotEdge
Remarks:
Altitude:
(Current/Filed)
5,500ft
Speed:
(Current/Filed)
0kts
Departed: 29-Nov-19 01:18 PM
Arrived: 29-Nov-19 02:03 PM
Distance/Time
Traveled:
69nm/0:45
Distance/Time
To Go:
Arrived

Flight Plot

Page will automatically refresh every two minutes.


Map Options




Map Legend


Flown Route
Filed Route
Departure Airport
Arrival Airport
Navaid (VOR, NDB)
Fix

Horizontal Profiles

Position Reports

Time Latitude Longitude Heading Altitude Ground
Speed
29-Nov-19 13:16 34.211223 -118.880490 97 5608ft 126kts
29-Nov-19 13:17 34.206218 -118.837635 98 5614ft 126kts
29-Nov-19 13:18 34.201191 -118.794596 97 5477ft 133kts
29-Nov-19 13:19 34.195996 -118.752323 97 5574ft 118kts
29-Nov-19 13:20 34.190636 -118.711905 97 5495ft 128kts
29-Nov-19 13:21 34.184555 -118.668061 97 5312ft 133kts
29-Nov-19 13:22 34.178229 -118.623871 97 5125ft 133kts
29-Nov-19 13:23 34.172220 -118.583167 97 5507ft 110kts
29-Nov-19 13:24 34.166197 -118.542507 97 5510ft 131kts
29-Nov-19 13:25 34.157052 -118.499672 133 5508ft 133kts
29-Nov-19 13:26 34.123498 -118.488018 179 5497ft 127kts
29-Nov-19 13:27 34.088592 -118.484200 186 5504ft 124kts
29-Nov-19 13:28 34.055224 -118.482305 187 5503ft 116kts
29-Nov-19 13:29 34.023365 -118.477650 168 5509ft 124kts
29-Nov-19 13:30 33.994847 -118.462633 167 5513ft 123kts
29-Nov-19 13:31 33.962771 -118.449635 175 5514ft 121kts
29-Nov-19 13:33 33.930577 -118.433659 167 5516ft 126kts
29-Nov-19 13:34 33.902597 -118.408485 120 5519ft 140kts
29-Nov-19 13:35 33.883099 -118.368415 138 5518ft 136kts
29-Nov-19 13:36 33.854764 -118.343375 161 5513ft 127kts
29-Nov-19 13:37 33.825140 -118.319918 154 5513ft 128kts
29-Nov-19 13:38 33.798077 -118.294760 152 5510ft 115kts
29-Nov-19 13:39 33.773348 -118.270368 151 5515ft 119kts
29-Nov-19 13:40 33.747885 -118.242583 139 5514ft 129kts
29-Nov-19 13:41 33.734722 -118.200172 112 5514ft 137kts
29-Nov-19 13:42 33.729112 -118.154426 97 5515ft 139kts
29-Nov-19 13:43 33.724538 -118.108155 96 5512ft 136kts
29-Nov-19 13:44 33.719898 -118.064579 97 5512ft 127kts
29-Nov-19 13:45 33.715777 -118.023570 96 5510ft 119kts
29-Nov-19 13:46 33.716565 -117.985037 73 5520ft 117kts
29-Nov-19 13:47 33.723355 -117.942632 74 5516ft 136kts
29-Nov-19 13:48 33.730418 -117.899656 62 5516ft 125kts
29-Nov-19 13:49 33.742672 -117.861628 50 5474ft 115kts
29-Nov-19 13:50 33.767781 -117.852168 303 4720ft 97kts
29-Nov-19 13:51 33.776312 -117.883630 283 3725ft 102kts
29-Nov-19 13:52 33.804711 -117.883879 16 2599ft 123kts
29-Nov-19 13:52 33.809783 -117.855444 129 1734ft 122kts
29-Nov-19 13:54 33.779881 -117.846343 270 812ft 88kts
29-Nov-19 13:55 33.792016 -117.871047 308 851ft 95kts
29-Nov-19 13:55 33.801882 -117.872629 116 951ft 116kts
29-Nov-19 13:56 33.782729 -117.842129 135 1117ft 121kts
29-Nov-19 13:58 33.757562 -117.817475 157 1245ft 85kts
29-Nov-19 13:58 33.741484 -117.824048 218 1263ft 80kts
29-Nov-19 13:59 33.722589 -117.837873 215 1130ft 75kts
29-Nov-19 14:00 33.703328 -117.850813 216 578ft 81kts
29-Nov-19 14:01 33.685213 -117.862727 212 181ft 74kts
29-Nov-19 14:02 33.674098 -117.870139 246 60ft 12kts
29-Nov-19 14:03 33.674218 -117.871014 288 60ft 0kts
29-Nov-19 14:04 33.674320 -117.871356 297 60ft 7kts
29-Nov-19 14:05 33.674922 -117.871742 28 60ft 0kts

Navigation Log

Ident Type
Flight plan parsing failed, navigation log unavailable